sensor_id;sensor_type;location;lat;lon;timestamp;temperature;humidity
39453;DHT22;25154;-33.684;151.102;2023-02-28T00:03:10;23.00;99.90
39453;DHT22;25154;-33.684;151.102;2023-02-28T00:08:12;23.10;99.90
39453;DHT22;25154;-33.684;151.102;2023-02-28T00:13:14;23.60;99.90
39453;DHT22;25154;-33.684;151.102;2023-02-28T00:18:18;23.90;99.90
39453;DHT22;25154;-33.684;151.102;2023-02-28T00:23:21;24.30;99.90
39453;DHT22;25154;-33.684;151.102;2023-02-28T00:28:24;23.80;99.90
39453;DHT22;25154;-33.684;151.102;2023-02-28T00:33:27;25.20;99.90
39453;DHT22;25154;-33.684;151.102;2023-02-28T00:38:29;25.50;99.90
39453;DHT22;25154;-33.684;151.102;2023-02-28T00:43:36;26.00;99.90
39453;DHT22;25154;-33.684;151.102;2023-02-28T00:48:39;27.00;99.90
39453;DHT22;25154;-33.684;151.102;2023-02-28T00:53:41;27.40;99.90
39453;DHT22;25154;-33.684;151.102;2023-02-28T00:58:44;27.60;99.90
39453;DHT22;25154;-33.684;151.102;2023-02-28T01:03:46;28.20;99.90
39453;DHT22;25154;-33.684;151.102;2023-02-28T01:08:49;28.30;99.90
39453;DHT22;25154;-33.684;151.102;2023-02-28T01:13:52;28.80;99.90
39453;DHT22;25154;-33.684;151.102;2023-02-28T01:18:54;28.50;99.90
39453;DHT22;25154;-33.684;151.102;2023-02-28T01:23:58;27.50;99.90
39453;DHT22;25154;-33.684;151.102;2023-02-28T01:29:01;27.10;99.90
39453;DHT22;25154;-33.684;151.102;2023-02-28T01:34:04;27.00;99.90
39453;DHT22;25154;-33.684;151.102;2023-02-28T01:39:10;29.20;99.90
39453;DHT22;25154;-33.684;151.102;2023-02-28T01:49:53;26.80;99.90
39453;DHT22;25154;-33.684;151.102;2023-02-28T01:54:58;26.50;99.90
39453;DHT22;25154;-33.684;151.102;2023-02-28T02:00:10;26.10;99.90
39453;DHT22;25154;-33.684;151.102;2023-02-28T02:05:21;25.80;99.90
39453;DHT22;25154;-33.684;151.102;2023-02-28T02:10:43;26.00;99.90
39453;DHT22;25154;-33.684;151.102;2023-02-28T02:22:25;27.10;99.90
39453;DHT22;25154;-33.684;151.102;2023-02-28T02:37:49;26.30;99.90
39453;DHT22;25154;-33.684;151.102;2023-02-28T02:42:56;26.10;99.90
39453;DHT22;25154;-33.684;151.102;2023-02-28T02:48:05;26.10;99.90
39453;DHT22;25154;-33.684;151.102;2023-02-28T02:53:09;26.20;99.90
39453;DHT22;25154;-33.684;151.102;2023-02-28T02:58:16;26.90;99.90
39453;DHT22;25154;-33.684;151.102;2023-02-28T03:03:19;27.60;99.90
39453;DHT22;25154;-33.684;151.102;2023-02-28T03:08:35;28.00;99.90
39453;DHT22;25154;-33.684;151.102;2023-02-28T03:29:54;30.20;99.90
39453;DHT22;25154;-33.684;151.102;2023-02-28T03:35:11;29.70;99.90
39453;DHT22;25154;-33.684;151.102;2023-02-28T03:40:30;29.90;99.90
39453;DHT22;25154;-33.684;151.102;2023-02-28T03:45:37;30.50;99.90
39453;DHT22;25154;-33.684;151.102;2023-02-28T03:50:43;30.90;99.90
39453;DHT22;25154;-33.684;151.102;2023-02-28T04:01:30;31.70;99.90
39453;DHT22;25154;-33.684;151.102;2023-02-28T04:06:35;32.40;99.90
39453;DHT22;25154;-33.684;151.102;2023-02-28T04:16:44;32.90;99.90
39453;DHT22;25154;-33.684;151.102;2023-02-28T04:21:51;32.70;99.90
39453;DHT22;25154;-33.684;151.102;2023-02-28T04:26:56;31.90;99.90
39453;DHT22;25154;-33.684;151.102;2023-02-28T04:32:00;33.00;99.90
39453;DHT22;25154;-33.684;151.102;2023-02-28T04:37:03;34.20;98.80
39453;DHT22;25154;-33.684;151.102;2023-02-28T04:42:06;35.20;99.60
39453;DHT22;25154;-33.684;151.102;2023-02-28T04:47:09;35.50;97.00
39453;DHT22;25154;-33.684;151.102;2023-02-28T04:52:11;34.80;97.90
39453;DHT22;25154;-33.684;151.102;2023-02-28T04:57:14;33.70;98.90
39453;DHT22;25154;-33.684;151.102;2023-02-28T05:02:17;32.50;99.90
39453;DHT22;25154;-33.684;151.102;2023-02-28T05:07:19;31.40;99.90
39453;DHT22;25154;-33.684;151.102;2023-02-28T05:12:21;30.90;99.90
39453;DHT22;25154;-33.684;151.102;2023-02-28T05:17:24;29.70;99.90
39453;DHT22;25154;-33.684;151.102;2023-02-28T05:22:26;28.70;99.90
39453;DHT22;25154;-33.684;151.102;2023-02-28T05:27:29;28.80;99.90
39453;DHT22;25154;-33.684;151.102;2023-02-28T05:32:32;29.30;99.90
39453;DHT22;25154;-33.684;151.102;2023-02-28T05:37:34;29.40;99.90
39453;DHT22;25154;-33.684;151.102;2023-02-28T05:42:38;29.60;99.90
39453;DHT22;25154;-33.684;151.102;2023-02-28T05:47:41;29.60;99.90
39453;DHT22;25154;-33.684;151.102;2023-02-28T05:52:44;30.80;99.90
39453;DHT22;25154;-33.684;151.102;2023-02-28T05:57:47;31.30;99.90
39453;DHT22;25154;-33.684;151.102;2023-02-28T06:02:50;31.30;99.90
39453;DHT22;25154;-33.684;151.102;2023-02-28T06:07:55;31.10;99.90
39453;DHT22;25154;-33.684;151.102;2023-02-28T06:13:00;31.30;99.90
39453;DHT22;25154;-33.684;151.102;2023-02-28T06:18:05;30.30;99.90
39453;DHT22;25154;-33.684;151.102;2023-02-28T06:23:07;28.70;99.90
39453;DHT22;25154;-33.684;151.102;2023-02-28T06:28:10;27.80;99.90
39453;DHT22;25154;-33.684;151.102;2023-02-28T06:33:13;28.00;99.90
39453;DHT22;25154;-33.684;151.102;2023-02-28T06:38:19;28.20;99.90
39453;DHT22;25154;-33.684;151.102;2023-02-28T06:43:25;27.10;99.90
39453;DHT22;25154;-33.684;151.102;2023-02-28T06:48:28;28.10;99.90
39453;DHT22;25154;-33.684;151.102;2023-02-28T06:53:37;28.40;99.90
39453;DHT22;25154;-33.684;151.102;2023-02-28T06:58:41;28.10;99.90
39453;DHT22;25154;-33.684;151.102;2023-02-28T07:03:44;27.60;99.90
39453;DHT22;25154;-33.684;151.102;2023-02-28T07:08:47;27.30;99.90
39453;DHT22;25154;-33.684;151.102;2023-02-28T07:13:51;26.70;99.90
39453;DHT22;25154;-33.684;151.102;2023-02-28T07:18:54;26.80;99.90
39453;DHT22;25154;-33.684;151.102;2023-02-28T07:23:57;26.90;99.90
39453;DHT22;25154;-33.684;151.102;2023-02-28T07:29:00;26.70;99.90
39453;DHT22;25154;-33.684;151.102;2023-02-28T07:34:04;25.90;99.90
39453;DHT22;25154;-33.684;151.102;2023-02-28T07:39:07;25.10;99.90
39453;DHT22;25154;-33.684;151.102;2023-02-28T07:44:12;24.60;99.90
39453;DHT22;25154;-33.684;151.102;2023-02-28T07:49:14;24.20;99.90
39453;DHT22;25154;-33.684;151.102;2023-02-28T07:54:16;23.80;99.90
39453;DHT22;25154;-33.684;151.102;2023-02-28T07:59:19;23.60;99.90
39453;DHT22;25154;-33.684;151.102;2023-02-28T08:04:21;23.50;99.90
39453;DHT22;25154;-33.684;151.102;2023-02-28T08:09:26;23.30;99.90
39453;DHT22;25154;-33.684;151.102;2023-02-28T08:14:29;23.20;99.90
39453;DHT22;25154;-33.684;151.102;2023-02-28T08:19:31;23.00;99.90
39453;DHT22;25154;-33.684;151.102;2023-02-28T08:24:34;22.90;99.90
39453;DHT22;25154;-33.684;151.102;2023-02-28T08:29:39;22.70;99.90
39453;DHT22;25154;-33.684;151.102;2023-02-28T08:34:42;22.50;99.90
39453;DHT22;25154;-33.684;151.102;2023-02-28T08:39:50;22.30;99.90
39453;DHT22;25154;-33.684;151.102;2023-02-28T08:44:56;22.20;99.90
39453;DHT22;25154;-33.684;151.102;2023-02-28T08:49:58;22.10;99.90
39453;DHT22;25154;-33.684;151.102;2023-02-28T08:55:01;21.90;99.90
39453;DHT22;25154;-33.684;151.102;2023-02-28T09:00:03;21.80;99.90
39453;DHT22;25154;-33.684;151.102;2023-02-28T09:05:06;21.80;99.90
39453;DHT22;25154;-33.684;151.102;2023-02-28T09:10:10;21.70;99.90
39453;DHT22;25154;-33.684;151.102;2023-02-28T09:15:13;21.70;99.90
39453;DHT22;25154;-33.684;151.102;2023-02-28T09:20:15;21.60;99.90
39453;DHT22;25154;-33.684;151.102;2023-02-28T09:25:18;21.60;99.90
39453;DHT22;25154;-33.684;151.102;2023-02-28T09:30:20;21.50;99.90
39453;DHT22;25154;-33.684;151.102;2023-02-28T09:35:23;21.50;99.90
39453;DHT22;25154;-33.684;151.102;2023-02-28T09:40:27;21.50;99.90
39453;DHT22;25154;-33.684;151.102;2023-02-28T09:45:33;21.40;99.90
39453;DHT22;25154;-33.684;151.102;2023-02-28T09:51:03;21.40;99.90
39453;DHT22;25154;-33.684;151.102;2023-02-28T09:56:15;21.40;99.90
39453;DHT22;25154;-33.684;151.102;2023-02-28T10:06:58;21.50;99.90
39453;DHT22;25154;-33.684;151.102;2023-02-28T10:12:04;21.60;99.90
39453;DHT22;25154;-33.684;151.102;2023-02-28T10:17:17;21.70;99.90
39453;DHT22;25154;-33.684;151.102;2023-02-28T10:22:36;21.80;99.90
39453;DHT22;25154;-33.684;151.102;2023-02-28T10:27:40;21.90;99.90
39453;DHT22;25154;-33.684;151.102;2023-02-28T10:32:51;21.90;99.90
39453;DHT22;25154;-33.684;151.102;2023-02-28T10:37:59;22.00;99.90
39453;DHT22;25154;-33.684;151.102;2023-02-28T10:43:03;22.00;99.90
39453;DHT22;25154;-33.684;151.102;2023-02-28T10:48:26;22.10;99.90
39453;DHT22;25154;-33.684;151.102;2023-02-28T10:53:32;22.10;99.90
39453;DHT22;25154;-33.684;151.102;2023-02-28T10:59:01;22.30;99.90
39453;DHT22;25154;-33.684;151.102;2023-02-28T11:04:16;22.10;99.90
39453;DHT22;25154;-33.684;151.102;2023-02-28T11:09:37;22.00;99.90
39453;DHT22;25154;-33.684;151.102;2023-02-28T11:14:51;22.10;99.90
39453;DHT22;25154;-33.684;151.102;2023-02-28T11:19:57;22.10;99.90
39453;DHT22;25154;-33.684;151.102;2023-02-28T11:25:06;22.10;99.90
39453;DHT22;25154;-33.684;151.102;2023-02-28T11:35:35;22.10;99.90
39453;DHT22;25154;-33.684;151.102;2023-02-28T11:46:26;22.10;99.90
39453;DHT22;25154;-33.684;151.102;2023-02-28T11:51:53;22.10;99.90
39453;DHT22;25154;-33.684;151.102;2023-02-28T12:03:04;22.10;99.90
39453;DHT22;25154;-33.684;151.102;2023-02-28T12:13:48;21.90;99.90
39453;DHT22;25154;-33.684;151.102;2023-02-28T12:29:54;21.50;99.90
39453;DHT22;25154;-33.684;151.102;2023-02-28T12:35:22;21.50;99.90
39453;DHT22;25154;-33.684;151.102;2023-02-28T12:40:41;21.40;99.90
39453;DHT22;25154;-33.684;151.102;2023-02-28T12:45:51;21.40;99.90
39453;DHT22;25154;-33.684;151.102;2023-02-28T12:50:59;21.40;99.90
39453;DHT22;25154;-33.684;151.102;2023-02-28T13:01:56;21.50;99.90
39453;DHT22;25154;-33.684;151.102;2023-02-28T13:12:31;21.60;99.90
39453;DHT22;25154;-33.684;151.102;2023-02-28T13:17:44;21.50;99.90
39453;DHT22;25154;-33.684;151.102;2023-02-28T13:22:54;21.60;99.90
39453;DHT22;25154;-33.684;151.102;2023-02-28T13:27:57;21.60;99.90
39453;DHT22;25154;-33.684;151.102;2023-02-28T13:33:30;21.60;99.90
39453;DHT22;25154;-33.684;151.102;2023-02-28T13:38:40;21.70;99.90
39453;DHT22;25154;-33.684;151.102;2023-02-28T13:49:29;21.80;99.90
39453;DHT22;25154;-33.684;151.102;2023-02-28T14:10:28;21.90;99.90
39453;DHT22;25154;-33.684;151.102;2023-02-28T14:15:47;22.00;99.90
39453;DHT22;25154;-33.684;151.102;2023-02-28T14:21:20;23.00;99.90
39453;DHT22;25154;-33.684;151.102;2023-02-28T14:42:54;22.10;99.90
39453;DHT22;25154;-33.684;151.102;2023-02-28T14:47:57;21.30;99.90
39453;DHT22;25154;-33.684;151.102;2023-02-28T14:53:00;22.00;99.90
39453;DHT22;25154;-33.684;151.102;2023-02-28T14:58:06;22.10;99.90
39453;DHT22;25154;-33.684;151.102;2023-02-28T15:03:32;22.00;99.90
39453;DHT22;25154;-33.684;151.102;2023-02-28T15:08:35;23.10;99.90
39453;DHT22;25154;-33.684;151.102;2023-02-28T15:13:44;22.00;99.90
39453;DHT22;25154;-33.684;151.102;2023-02-28T15:18:57;21.90;99.90
39453;DHT22;25154;-33.684;151.102;2023-02-28T15:24:15;21.90;99.90
39453;DHT22;25154;-33.684;151.102;2023-02-28T15:29:27;21.90;99.90
39453;DHT22;25154;-33.684;151.102;2023-02-28T15:34:39;21.80;99.90
39453;DHT22;25154;-33.684;151.102;2023-02-28T15:39:46;21.90;99.90
39453;DHT22;25154;-33.684;151.102;2023-02-28T15:44:49;21.90;99.90
39453;DHT22;25154;-33.684;151.102;2023-02-28T15:50:03;21.90;99.90
39453;DHT22;25154;-33.684;151.102;2023-02-28T15:55:22;21.90;99.90
39453;DHT22;25154;-33.684;151.102;2023-02-28T16:00:27;21.80;99.90
39453;DHT22;25154;-33.684;151.102;2023-02-28T16:05:35;21.80;99.90
39453;DHT22;25154;-33.684;151.102;2023-02-28T16:10:37;21.90;99.90
39453;DHT22;25154;-33.684;151.102;2023-02-28T16:15:42;21.90;99.90
39453;DHT22;25154;-33.684;151.102;2023-02-28T16:20:45;21.90;99.90
39453;DHT22;25154;-33.684;151.102;2023-02-28T16:25:48;21.90;99.90
39453;DHT22;25154;-33.684;151.102;2023-02-28T16:30:54;21.90;99.90
39453;DHT22;25154;-33.684;151.102;2023-02-28T16:35:57;21.90;99.90
39453;DHT22;25154;-33.684;151.102;2023-02-28T16:41:00;21.90;99.90
39453;DHT22;25154;-33.684;151.102;2023-02-28T16:46:02;21.90;99.90
39453;DHT22;25154;-33.684;151.102;2023-02-28T16:51:05;21.90;99.90
39453;DHT22;25154;-33.684;151.102;2023-02-28T16:56:17;21.90;99.90
39453;DHT22;25154;-33.684;151.102;2023-02-28T17:01:20;21.90;99.90
39453;DHT22;25154;-33.684;151.102;2023-02-28T17:06:25;21.90;99.90
39453;DHT22;25154;-33.684;151.102;2023-02-28T17:11:29;21.90;99.90
39453;DHT22;25154;-33.684;151.102;2023-02-28T17:16:34;21.90;99.90
39453;DHT22;25154;-33.684;151.102;2023-02-28T17:21:38;21.90;99.90
39453;DHT22;25154;-33.684;151.102;2023-02-28T17:26:41;21.90;99.90
39453;DHT22;25154;-33.684;151.102;2023-02-28T17:31:44;21.80;99.90
39453;DHT22;25154;-33.684;151.102;2023-02-28T17:36:48;21.80;99.90
39453;DHT22;25154;-33.684;151.102;2023-02-28T17:41:54;21.80;99.90
39453;DHT22;25154;-33.684;151.102;2023-02-28T17:46:58;21.70;99.90
39453;DHT22;25154;-33.684;151.102;2023-02-28T17:52:00;21.70;99.90
39453;DHT22;25154;-33.684;151.102;2023-02-28T17:57:03;21.70;99.90
39453;DHT22;25154;-33.684;151.102;2023-02-28T18:02:05;21.50;99.90
39453;DHT22;25154;-33.684;151.102;2023-02-28T18:07:10;21.30;99.90
39453;DHT22;25154;-33.684;151.102;2023-02-28T18:12:13;21.10;99.90
39453;DHT22;25154;-33.684;151.102;2023-02-28T18:17:15;20.90;99.90
39453;DHT22;25154;-33.684;151.102;2023-02-28T18:22:17;20.70;99.90
39453;DHT22;25154;-33.684;151.102;2023-02-28T18:27:20;20.50;99.90
39453;DHT22;25154;-33.684;151.102;2023-02-28T18:32:22;20.40;99.90
39453;DHT22;25154;-33.684;151.102;2023-02-28T18:37:24;20.30;99.90
39453;DHT22;25154;-33.684;151.102;2023-02-28T18:42:33;20.20;99.90
39453;DHT22;25154;-33.684;151.102;2023-02-28T18:47:35;20.10;99.90
39453;DHT22;25154;-33.684;151.102;2023-02-28T18:52:38;20.00;99.90
39453;DHT22;25154;-33.684;151.102;2023-02-28T18:57:41;20.00;99.90
39453;DHT22;25154;-33.684;151.102;2023-02-28T19:02:43;19.90;99.90
39453;DHT22;25154;-33.684;151.102;2023-02-28T19:07:46;19.90;99.90
39453;DHT22;25154;-33.684;151.102;2023-02-28T19:12:49;19.80;99.90
39453;DHT22;25154;-33.684;151.102;2023-02-28T19:17:51;19.70;99.90
39453;DHT22;25154;-33.684;151.102;2023-02-28T19:22:53;19.60;99.90
39453;DHT22;25154;-33.684;151.102;2023-02-28T19:27:55;19.60;99.90
39453;DHT22;25154;-33.684;151.102;2023-02-28T19:32:58;19.60;99.90
39453;DHT22;25154;-33.684;151.102;2023-02-28T19:38:00;19.50;99.90
39453;DHT22;25154;-33.684;151.102;2023-02-28T19:43:03;19.50;99.90
39453;DHT22;25154;-33.684;151.102;2023-02-28T19:48:05;19.70;99.90
39453;DHT22;25154;-33.684;151.102;2023-02-28T19:53:10;19.70;99.90
39453;DHT22;25154;-33.684;151.102;2023-02-28T19:58:12;19.60;99.90
39453;DHT22;25154;-33.684;151.102;2023-02-28T20:03:15;19.80;99.90
39453;DHT22;25154;-33.684;151.102;2023-02-28T20:08:18;19.60;99.90
39453;DHT22;25154;-33.684;151.102;2023-02-28T20:13:21;19.60;99.90
39453;DHT22;25154;-33.684;151.102;2023-02-28T20:18:25;19.70;99.90
39453;DHT22;25154;-33.684;151.102;2023-02-28T20:23:28;20.70;99.90
39453;DHT22;25154;-33.684;151.102;2023-02-28T20:28:30;19.80;99.90
39453;DHT22;25154;-33.684;151.102;2023-02-28T20:33:33;19.80;99.90
39453;DHT22;25154;-33.684;151.102;2023-02-28T20:38:35;19.90;99.90
39453;DHT22;25154;-33.684;151.102;2023-02-28T20:43:38;19.90;99.90
39453;DHT22;25154;-33.684;151.102;2023-02-28T20:48:41;19.90;99.90
39453;DHT22;25154;-33.684;151.102;2023-02-28T20:53:43;19.90;99.90
39453;DHT22;25154;-33.684;151.102;2023-02-28T20:58:49;20.00;99.90
39453;DHT22;25154;-33.684;151.102;2023-02-28T21:03:54;20.00;99.90
39453;DHT22;25154;-33.684;151.102;2023-02-28T21:08:58;20.10;99.90
39453;DHT22;25154;-33.684;151.102;2023-02-28T21:14:06;20.10;99.90
39453;DHT22;25154;-33.684;151.102;2023-02-28T21:19:10;20.00;99.90
39453;DHT22;25154;-33.684;151.102;2023-02-28T21:24:15;20.10;99.90
39453;DHT22;25154;-33.684;151.102;2023-02-28T21:29:18;20.30;99.90
39453;DHT22;25154;-33.684;151.102;2023-02-28T21:34:20;20.40;99.90
39453;DHT22;25154;-33.684;151.102;2023-02-28T21:39:25;20.60;99.90
39453;DHT22;25154;-33.684;151.102;2023-02-28T21:44:30;20.90;99.90
39453;DHT22;25154;-33.684;151.102;2023-02-28T21:49:34;21.10;99.90
39453;DHT22;25154;-33.684;151.102;2023-02-28T21:54:39;21.40;99.90
39453;DHT22;25154;-33.684;151.102;2023-02-28T21:59:42;21.60;99.90
39453;DHT22;25154;-33.684;151.102;2023-02-28T22:04:44;21.80;99.90
39453;DHT22;25154;-33.684;151.102;2023-02-28T22:09:47;22.00;99.90
39453;DHT22;25154;-33.684;151.102;2023-02-28T22:14:49;22.40;99.90
39453;DHT22;25154;-33.684;151.102;2023-02-28T22:19:51;22.60;99.90
39453;DHT22;25154;-33.684;151.102;2023-02-28T22:24:54;22.90;99.90
39453;DHT22;25154;-33.684;151.102;2023-02-28T22:29:56;23.10;99.90
39453;DHT22;25154;-33.684;151.102;2023-02-28T22:35:00;23.50;99.90
39453;DHT22;25154;-33.684;151.102;2023-02-28T22:40:04;23.90;99.90
39453;DHT22;25154;-33.684;151.102;2023-02-28T22:45:06;24.20;99.90
39453;DHT22;25154;-33.684;151.102;2023-02-28T22:50:10;24.50;99.90
39453;DHT22;25154;-33.684;151.102;2023-02-28T22:55:12;24.70;99.90
39453;DHT22;25154;-33.684;151.102;2023-02-28T23:00:15;25.20;99.90
39453;DHT22;25154;-33.684;151.102;2023-02-28T23:05:17;25.40;99.90
39453;DHT22;25154;-33.684;151.102;2023-02-28T23:10:19;25.70;99.90
39453;DHT22;25154;-33.684;151.102;2023-02-28T23:15:22;25.70;99.90
39453;DHT22;25154;-33.684;151.102;2023-02-28T23:20:25;25.80;99.90
39453;DHT22;25154;-33.684;151.102;2023-02-28T23:25:27;26.00;99.90
39453;DHT22;25154;-33.684;151.102;2023-02-28T23:30:31;26.40;99.90
39453;DHT22;25154;-33.684;151.102;2023-02-28T23:35:34;26.50;99.90
39453;DHT22;25154;-33.684;151.102;2023-02-28T23:40:39;26.40;99.90
39453;DHT22;25154;-33.684;151.102;2023-02-28T23:45:42;26.30;99.90
39453;DHT22;25154;-33.684;151.102;2023-02-28T23:50:47;26.20;99.90
39453;DHT22;25154;-33.684;151.102;2023-02-28T23:55:50;27.00;99.90
